Time;durP1;ratioP1;P1;durP2;ratioP2;P2;SDS_P1;SDS_P2;PMS_P1;PMS_P2;Temp;Humidity;BMP_temperature;BMP_pressure;BME280_temperature;BME280_humidity;BME280_pressure;Samples;Min_cycle;Max_cycle;Signal;HPM_P1;HPM_P2
2023/05/10 00:00:34;;;;;;;;;;;15.40;68.30;;;11.42;100.00;95110.06;5011495;28;20360;-44
2023/05/10 00:03:00;;;;;;;;;;;15.40;68.20;;;11.41;100.00;95109.28;5010582;28;19916;-44
2023/05/10 00:05:26;;;;;;;;;;;15.40;68.30;;;11.40;100.00;95104.22;5010712;28;20525;-45
2023/05/10 00:07:51;;;;;;;;;;;15.40;68.30;;;11.43;100.00;95109.00;5010144;28;19909;-46
2023/05/10 00:10:17;;;;;;;;;;;15.50;68.40;;;11.43;100.00;95106.31;4997829;28;19915;-49
2023/05/10 00:12:43;;;;;;;;;;;15.50;68.30;;;11.43;100.00;95112.44;5020194;28;20000;-52
2023/05/10 00:15:10;;;;;;;;;;;15.50;68.30;;;11.38;100.00;95106.38;5010373;28;19917;-45
2023/05/10 00:17:36;;;;;;;;;;;15.50;68.30;;;11.37;100.00;95102.91;5011471;28;20346;-46
2023/05/10 00:20:04;;;;;;;;;;;15.50;68.30;;;11.33;100.00;95108.00;5010271;28;19953;-45
2023/05/10 00:22:31;;;;;;;;;;;15.50;68.40;;;11.32;100.00;95110.97;5011435;28;19909;-44
2023/05/10 00:24:58;;;;;;;;;;;15.40;68.40;;;11.32;100.00;95113.63;5010893;28;19919;-45
2023/05/10 00:27:23;;;;;;;;;;;15.50;68.30;;;11.33;100.00;95115.22;5019013;28;19913;-46
2023/05/10 00:29:49;;;;;;;;;;;15.40;68.20;;;11.34;100.00;95112.28;5010953;28;19996;-45
2023/05/10 00:32:15;;;;;;;;;;;15.50;68.30;;;11.29;100.00;95114.19;5011488;28;19908;-47
2023/05/10 00:34:41;;;;;;;;;;;15.50;68.30;;;11.26;100.00;95115.53;5014691;28;19908;-45
2023/05/10 00:37:07;;;;;;;;;;;15.50;68.30;;;11.30;100.00;95121.91;5026053;28;20414;-45
2023/05/10 00:39:33;;;;;;;;;;;15.50;68.30;;;11.26;100.00;95120.88;5011691;28;19991;-46
2023/05/10 00:41:59;;;;;;;;;;;15.40;68.20;;;11.29;100.00;95120.31;5014939;28;19940;-45
2023/05/10 00:44:25;;;;;;;;;;;15.40;68.20;;;11.29;100.00;95122.19;5013965;28;20403;-45
2023/05/10 00:46:52;;;;;;;;;;;15.40;68.20;;;11.29;100.00;95125.66;5015200;28;19996;-48
2023/05/10 00:49:18;;;;;;;;;;;15.40;68.20;;;11.29;100.00;95124.84;5015047;28;20355;-46
2023/05/10 00:51:44;;;;;;;;;;;15.40;68.20;;;11.29;100.00;95125.66;5021919;28;20422;-49
2023/05/10 00:54:15;;;;;;;;;;;15.40;68.20;;;11.30;100.00;95132.56;5017821;28;19920;-44
2023/05/10 00:56:41;;;;;;;;;;;15.40;68.20;;;11.34;100.00;95130.13;5012134;28;19913;-47
2023/05/10 00:59:08;;;;;;;;;;;15.40;68.20;;;11.32;100.00;95138.41;5013380;28;19917;-47
2023/05/10 01:01:36;;;;;;;;;;;15.50;68.20;;;11.27;100.00;95135.78;5013535;28;19909;-52
2023/05/10 01:04:02;;;;;;;;;;;15.40;68.20;;;11.25;100.00;95137.94;5013898;28;20376;-47
2023/05/10 01:06:29;;;;;;;;;;;15.40;68.20;;;11.25;100.00;95129.94;5013316;28;19996;-45
2023/05/10 01:08:55;;;;;;;;;;;15.50;68.30;;;11.29;100.00;95138.97;5015711;28;20336;-47
2023/05/10 01:11:22;;;;;;;;;;;15.50;68.30;;;11.27;100.00;95141.13;5009890;28;20020;-45
2023/05/10 01:13:56;;;;;;;;;;;15.40;68.20;;;11.27;100.00;95132.31;5007891;28;20453;-47
2023/05/10 01:16:24;;;;;;;;;;;15.40;68.20;;;11.31;100.00;95141.34;5013009;28;19920;-47
2023/05/10 01:18:52;;;;;;;;;;;15.40;68.20;;;11.32;100.00;95138.41;5013596;28;20004;-51
2023/05/10 01:21:46;;;;;;;;;;;15.40;68.30;;;11.32;100.00;95143.75;5009730;28;19936;-45
2023/05/10 01:24:28;;;;;;;;;;;15.40;68.30;;;11.29;100.00;95135.53;5002592;28;19948;-45
2023/05/10 01:27:51;;;;;;;;;;;15.40;68.30;;;11.22;100.00;95143.03;5016763;28;19909;-46
2023/05/10 01:30:43;;;;;;;;;;;15.40;68.30;;;11.21;100.00;95139.56;5033913;28;19909;-48
2023/05/10 01:33:28;;;;;;;;;;;15.40;68.30;;;11.22;100.00;95141.19;5029017;28;19908;-46
2023/05/10 01:36:25;;;;;;;;;;;15.30;68.30;;;11.22;100.00;95145.69;5032605;28;20328;-45
2023/05/10 01:39:22;;;;;;;;;;;15.30;68.30;;;11.21;100.00;95144.09;5012974;28;20394;-45
2023/05/10 01:41:52;;;;;;;;;;;15.30;68.30;;;11.23;100.00;95149.97;5034132;28;19909;-47
2023/05/10 01:44:50;;;;;;;;;;;15.40;68.40;;;11.20;100.00;95137.97;5014710;28;19909;-46
2023/05/10 01:47:37;;;;;;;;;;;15.30;68.30;;;11.22;100.00;95143.84;5028808;28;19959;-50
2023/05/10 01:50:14;;;;;;;;;;;15.30;68.30;;;11.22;100.00;95143.03;5032421;28;20287;-45
2023/05/10 01:52:54;;;;;;;;;;;15.30;68.30;;;11.22;100.00;95146.50;5016883;28;19963;-48
2023/05/10 01:55:25;;;;;;;;;;;15.30;68.30;;;11.22;100.00;95145.69;5027541;28;19917;-46
2023/05/10 01:58:08;;;;;;;;;;;15.40;68.30;;;11.16;100.00;95144.97;5031918;28;20387;-44
2023/05/10 02:00:39;;;;;;;;;;;15.40;68.40;;;11.17;100.00;95146.53;5031997;28;19912;-46
2023/05/10 02:03:08;;;;;;;;;;;15.30;68.30;;;11.14;100.00;95143.63;5023150;28;19909;-47
2023/05/10 02:05:37;;;;;;;;;;;15.30;68.30;;;11.13;100.00;95148.19;5031698;28;19909;-47
2023/05/10 02:08:07;;;;;;;;;;;15.30;68.40;;;11.10;100.00;95143.41;5020703;28;19909;-49
2023/05/10 02:10:35;;;;;;;;;;;15.30;68.50;;;11.11;100.00;95145.78;5032341;28;19908;-45
2023/05/10 02:13:03;;;;;;;;;;;15.30;68.60;;;11.15;100.00;95147.88;5029065;28;19917;-48
2023/05/10 02:15:31;;;;;;;;;;;15.30;68.70;;;11.15;100.00;95148.69;5009044;28;19955;-46
2023/05/10 02:18:02;;;;;;;;;;;15.30;68.70;;;11.16;100.00;95144.97;5031962;28;19972;-45
2023/05/10 02:20:31;;;;;;;;;;;15.30;68.70;;;11.14;100.00;95141.75;5014012;28;20007;-45
2023/05/10 02:22:59;;;;;;;;;;;15.30;68.70;;;11.16;100.00;95152.16;5031648;28;19952;-46
2023/05/10 02:25:26;;;;;;;;;;;15.30;68.80;;;11.15;100.00;95143.34;5029576;28;19909;-45
2023/05/10 02:27:57;;;;;;;;;;;15.30;68.80;;;11.15;100.00;95146.00;5032525;28;19951;-46
2023/05/10 02:30:24;;;;;;;;;;;15.30;68.90;;;11.10;100.00;95146.84;5031613;28;19912;-46
2023/05/10 02:32:52;;;;;;;;;;;15.30;68.90;;;11.11;100.00;95143.09;5031205;28;19999;-45
2023/05/10 02:35:19;;;;;;;;;;;15.30;69.00;;;11.08;100.00;95141.00;5031077;28;19909;-45
2023/05/10 02:37:47;;;;;;;;;;;15.30;69.10;;;11.08;100.00;95148.19;5017583;28;19908;-44
2023/05/10 02:40:15;;;;;;;;;;;15.30;69.20;;;11.11;100.00;95144.97;5031486;28;19909;-46
2023/05/10 02:42:43;;;;;;;;;;;15.30;69.30;;;11.14;100.00;95148.97;5029954;28;20380;-44
2023/05/10 02:45:19;;;;;;;;;;;15.30;69.30;;;11.12;100.00;95143.91;5012418;28;19909;-45
2023/05/10 02:47:45;;;;;;;;;;;15.30;69.30;;;11.13;100.00;95139.38;5011745;28;19909;-45
2023/05/10 02:50:11;;;;;;;;;;;15.30;69.30;;;11.09;100.00;95136.47;5012409;28;20376;-45
2023/05/10 02:52:51;;;;;;;;;;;15.20;69.20;;;11.08;100.00;95142.88;5030045;28;19966;-48
2023/05/10 02:55:25;;;;;;;;;;;15.20;69.30;;;11.05;100.00;95138.88;5028402;28;19913;-49
2023/05/10 02:58:02;;;;;;;;;;;15.20;69.40;;;11.06;100.00;95132.50;5032083;28;19962;-45
2023/05/10 03:00:29;;;;;;;;;;;15.20;69.30;;;11.07;100.00;95133.28;5032122;28;20282;-45
2023/05/10 03:02:55;;;;;;;;;;;15.20;69.30;;;11.08;100.00;95138.34;5022671;28;19909;-45
2023/05/10 03:05:21;;;;;;;;;;;15.20;69.30;;;11.08;100.00;95134.88;5031496;28;19948;-45
2023/05/10 03:07:48;;;;;;;;;;;15.20;69.40;;;11.06;100.00;95145.00;5023445;28;19908;-47
2023/05/10 03:10:14;;;;;;;;;;;15.20;69.40;;;11.08;100.00;95142.88;5029087;28;19917;-46
2023/05/10 03:13:06;;;;;;;;;;;15.20;69.40;;;11.08;100.00;95150.88;5030784;28;20372;-46
2023/05/10 03:15:55;;;;;;;;;;;15.20;69.40;;;11.06;100.00;95150.34;5017569;28;19916;-48
2023/05/10 03:18:34;;;;;;;;;;;15.20;69.40;;;11.03;100.00;95150.91;5031924;28;20077;-45
2023/05/10 03:21:07;;;;;;;;;;;15.20;69.40;;;11.03;100.00;95157.03;5024487;28;20278;-50
2023/05/10 03:23:46;;;;;;;;;;;15.20;69.40;;;11.03;100.00;95164.22;5031326;28;20330;-48
2023/05/10 03:26:23;;;;;;;;;;;15.20;69.50;;;11.00;100.00;95160.25;5026610;28;19920;-44
2023/05/10 03:28:50;;;;;;;;;;;15.20;69.50;;;11.04;100.00;95160.50;5031589;28;20283;-45
2023/05/10 03:31:17;;;;;;;;;;;15.20;69.60;;;11.09;100.00;95171.09;5026626;28;19967;-47
2023/05/10 03:33:51;;;;;;;;;;;15.20;69.50;;;11.12;100.00;95165.22;5021512;28;19912;-45
2023/05/10 03:36:18;;;;;;;;;;;15.20;69.60;;;11.13;100.00;95166.84;5030108;28;19912;-47
2023/05/10 03:38:45;;;;;;;;;;;15.30;69.50;;;11.17;100.00;95167.88;5029981;28;19951;-46
2023/05/10 03:41:11;;;;;;;;;;;15.30;69.50;;;11.20;100.00;95164.66;5031602;28;19948;-45
2023/05/10 03:43:37;;;;;;;;;;;15.30;69.50;;;11.21;100.00;95170.75;5026760;28;19913;-49
2023/05/10 03:46:04;;;;;;;;;;;15.40;69.50;;;11.22;100.00;95159.03;5019532;28;19955;-45
2023/05/10 03:48:33;;;;;;;;;;;15.40;69.50;;;11.22;100.00;95172.34;5031649;28;19908;-47
2023/05/10 03:50:59;;;;;;;;;;;15.40;69.50;;;11.24;100.00;95171.00;5029823;28;19916;-47
2023/05/10 03:53:24;;;;;;;;;;;15.40;69.40;;;11.26;100.00;95178.75;5030492;28;20269;-45
2023/05/10 03:55:50;;;;;;;;;;;15.40;69.40;;;11.28;100.00;95171.22;5025648;28;19920;-46
2023/05/10 03:58:16;;;;;;;;;;;15.40;69.40;;;11.31;100.00;95179.50;5031496;28;19912;-49
2023/05/10 04:00:44;;;;;;;;;;;15.40;69.40;;;11.28;100.00;95180.06;5031198;28;19912;-45
2023/05/10 04:03:11;;;;;;;;;;;15.40;69.30;;;11.26;100.00;95176.88;5022591;28;19909;-50
2023/05/10 04:05:37;;;;;;;;;;;15.40;69.30;;;11.25;100.00;95179.78;5030933;28;19919;-46
2023/05/10 04:08:05;;;;;;;;;;;15.40;69.30;;;11.25;100.00;95174.47;5020281;28;19928;-45
2023/05/10 04:10:31;;;;;;;;;;;15.40;69.30;;;11.23;100.00;95177.41;5030184;28;20260;-45
2023/05/10 04:12:57;;;;;;;;;;;15.40;69.30;;;11.22;100.00;95178.50;5028984;28;19980;-45
2023/05/10 04:15:23;;;;;;;;;;;15.40;69.30;;;11.20;100.00;95188.63;5024959;28;19944;-45
2023/05/10 04:17:49;;;;;;;;;;;15.30;69.30;;;11.16;100.00;95168.94;5031296;28;20363;-45
2023/05/10 04:20:15;;;;;;;;;;;15.40;69.30;;;11.12;100.00;95170.56;5024018;28;19909;-45
2023/05/10 04:22:40;;;;;;;;;;;15.30;69.20;;;11.09;100.00;95174.59;5031175;28;19912;-45
2023/05/10 04:25:07;;;;;;;;;;;15.30;69.20;;;11.10;100.00;95178.06;5027086;28;20369;-46
2023/05/10 04:27:33;;;;;;;;;;;15.40;69.40;;;11.12;100.00;95178.56;5024143;28;20067;-48
2023/05/10 04:29:59;;;;;;;;;;;15.30;69.30;;;11.13;100.00;95174.84;5030873;28;20011;-45
2023/05/10 04:32:25;;;;;;;;;;;15.30;69.40;;;11.14;100.00;95176.41;5029722;28;19909;-47
2023/05/10 04:34:51;;;;;;;;;;;15.40;69.40;;;11.15;100.00;95178.00;5031360;28;19908;-49
2023/05/10 04:37:17;;;;;;;;;;;15.40;70.20;;;11.17;100.00;95183.84;5026503;28;19958;-54
2023/05/10 04:39:45;;;;;;;;;;;15.40;69.40;;;11.17;100.00;95178.53;5028854;28;26935;-48
2023/05/10 04:42:11;;;;;;;;;;;15.40;69.40;;;11.18;100.00;95185.44;5028382;28;19909;-46
2023/05/10 04:44:37;;;;;;;;;;;15.40;69.40;;;11.22;100.00;95188.34;5015493;28;19913;-49
2023/05/10 04:47:03;;;;;;;;;;;15.40;69.40;;;11.22;100.00;95188.34;5006238;28;19962;-46
2023/05/10 04:49:29;;;;;;;;;;;15.50;69.40;;;11.23;100.00;95184.63;5023984;28;19948;-45
2023/05/10 04:51:55;;;;;;;;;;;15.40;69.40;;;11.23;100.00;95190.75;5006043;28;19945;-49
2023/05/10 04:54:21;;;;;;;;;;;15.50;69.40;;;11.23;100.00;95190.75;5030116;28;19912;-45
2023/05/10 04:56:47;;;;;;;;;;;15.50;69.40;;;11.25;100.00;95195.78;5025826;28;19916;-48
2023/05/10 04:59:13;;;;;;;;;;;15.50;69.50;;;11.26;100.00;95198.19;5022428;28;19917;-44
2023/05/10 05:01:39;;;;;;;;;;;15.50;69.40;;;11.28;100.00;95198.72;5021735;28;19909;-47
2023/05/10 05:04:05;;;;;;;;;;;15.50;69.40;;;11.31;100.00;95200.84;5029929;28;20274;-48
2023/05/10 05:06:31;;;;;;;;;;;15.60;69.50;;;11.31;100.00;95200.00;5019759;28;19909;-45
2023/05/10 05:08:56;;;;;;;;;;;15.60;69.50;;;11.34;100.00;95204.78;5015578;28;19919;-45
2023/05/10 05:11:22;;;;;;;;;;;15.60;69.50;;;11.34;100.00;95207.47;5030713;28;19909;-46
2023/05/10 05:13:48;;;;;;;;;;;15.60;69.50;;;11.35;100.00;95206.41;5026953;28;19908;-44
2023/05/10 05:16:14;;;;;;;;;;;15.60;69.50;;;11.39;100.00;95214.63;5025463;28;19938;-48
2023/05/10 05:18:39;;;;;;;;;;;15.70;69.50;;;11.37;100.00;95211.44;5030811;28;19962;-45
2023/05/10 05:21:17;;;;;;;;;;;15.70;69.50;;;11.37;100.00;95214.91;5027789;28;20244;-45
2023/05/10 05:23:43;;;;;;;;;;;15.70;69.50;;;11.40;100.00;95213.56;4991959;28;25460;-47
2023/05/10 05:26:10;;;;;;;;;;;15.70;69.50;;;11.41;100.00;95221.28;5018121;28;19932;-48
2023/05/10 05:28:37;;;;;;;;;;;15.70;69.50;;;11.39;100.00;95219.97;5018575;28;20264;-44
2023/05/10 05:31:09;;;;;;;;;;;15.70;69.50;;;11.39;100.00;95223.44;5031312;28;19909;-47
2023/05/10 05:33:35;;;;;;;;;;;15.80;69.50;;;11.39;100.00;95222.63;5033453;28;20450;-44
2023/05/10 05:36:04;;;;;;;;;;;15.80;69.40;;;11.42;100.00;95230.09;5053169;23;19931;-46
2023/05/10 05:38:30;;;;;;;;;;;15.80;69.30;;;11.46;100.00;95228.44;5032572;28;19923;-46
2023/05/10 05:40:56;;;;;;;;;;;15.90;69.40;;;11.46;100.00;95236.44;5026536;28;20340;-46
2023/05/10 05:43:21;;;;;;;;;;;15.80;69.40;;;11.43;100.00;95235.13;5045629;28;20004;-47
2023/05/10 05:45:47;;;;;;;;;;;15.80;69.50;;;11.41;100.00;95229.28;5042812;28;20358;-47
2023/05/10 05:48:13;;;;;;;;;;;15.80;69.40;;;11.40;100.00;95230.34;5042816;28;19909;-49
2023/05/10 05:50:38;;;;;;;;;;;15.80;69.40;;;11.39;100.00;95231.44;5031991;28;19932;-48
2023/05/10 05:53:04;;;;;;;;;;;15.80;69.40;;;11.39;100.00;95223.44;5033928;28;19931;-49
2023/05/10 05:55:31;;;;;;;;;;;15.70;69.40;;;11.35;100.00;95233.06;5043500;28;19921;-47
2023/05/10 05:57:57;;;;;;;;;;;15.60;69.40;;;11.33;100.00;95229.88;5053019;28;19955;-47
2023/05/10 06:00:24;;;;;;;;;;;15.60;70.30;;;11.31;100.00;95234.69;5045012;28;20264;-47
2023/05/10 06:02:49;;;;;;;;;;;15.50;69.60;;;11.26;100.00;95238.19;5039012;28;19978;-47
2023/05/10 06:05:15;;;;;;;;;;;15.50;69.70;;;11.28;100.00;95229.91;5053099;28;20374;-46
2023/05/10 06:07:44;;;;;;;;;;;15.50;69.70;;;11.29;100.00;95239.50;5046699;28;20333;-47
2023/05/10 06:10:10;;;;;;;;;;;15.50;69.80;;;11.30;100.00;95241.09;5047056;28;20278;-47
2023/05/10 06:12:36;;;;;;;;;;;15.50;69.80;;;11.29;100.00;95240.28;5049961;28;19954;-47
2023/05/10 06:15:02;;;;;;;;;;;15.50;69.80;;;11.20;100.00;95243.84;5032525;28;19944;-47
2023/05/10 06:17:28;;;;;;;;;;;15.50;69.80;;;11.23;100.00;95254.72;5053311;28;20008;-47
2023/05/10 06:19:54;;;;;;;;;;;15.60;69.70;;;11.30;100.00;95257.09;5045334;28;20011;-47
2023/05/10 06:22:22;;;;;;;;;;;15.70;69.70;;;11.39;100.00;95257.31;5053694;28;20393;-47
2023/05/10 06:24:48;;;;;;;;;;;15.70;69.70;;;11.44;100.00;95267.91;5053399;28;19908;-46
2023/05/10 06:27:14;;;;;;;;;;;15.80;69.60;;;11.50;100.00;95264.97;5040757;28;20278;-47
2023/05/10 06:29:40;;;;;;;;;;;15.90;69.50;;;11.60;100.00;95264.09;5049081;28;20007;-47
2023/05/10 06:32:06;;;;;;;;;;;16.00;69.50;;;11.68;100.00;95274.16;5039681;28;19915;-48
2023/05/10 06:34:32;;;;;;;;;;;16.10;69.40;;;11.61;100.00;95268.34;5053124;28;19939;-47
2023/05/10 06:36:58;;;;;;;;;;;16.30;69.40;;;11.57;100.00;95269.97;5051359;28;19918;-49
2023/05/10 06:39:23;;;;;;;;;;;16.40;69.20;;;11.62;100.00;95272.59;5047010;28;20278;-47
2023/05/10 06:41:49;;;;;;;;;;;16.50;69.00;;;11.81;100.00;95275.38;5053256;28;19909;-49
2023/05/10 06:44:15;;;;;;;;;;;16.60;68.90;;;11.80;100.00;95281.81;5040978;28;19919;-47
2023/05/10 06:46:41;;;;;;;;;;;16.70;68.80;;;11.88;100.00;95280.47;5053096;28;19912;-46
2023/05/10 06:49:07;;;;;;;;;;;16.80;69.40;;;11.87;100.00;95276.19;5050165;28;19912;-47
2023/05/10 06:51:33;;;;;;;;;;;16.80;68.50;;;11.84;100.00;95282.03;5053634;28;19915;-46
2023/05/10 06:53:59;;;;;;;;;;;16.80;68.30;;;11.80;100.00;95276.47;5035560;28;19909;-47
2023/05/10 06:56:24;;;;;;;;;;;16.80;68.20;;;11.69;100.00;95282.94;5042864;28;20011;-48
2023/05/10 06:58:50;;;;;;;;;;;16.80;67.90;;;11.69;100.00;95289.09;5042661;28;20053;-47
2023/05/10 07:01:16;;;;;;;;;;;16.70;67.80;;;11.66;100.00;95294.19;5051235;28;19923;-47
2023/05/10 07:03:41;;;;;;;;;;;16.70;67.70;;;11.71;100.00;95288.81;5050264;28;20011;-46
2023/05/10 07:06:07;;;;;;;;;;;16.70;67.70;;;11.78;100.00;95292.78;5049176;28;20400;-47
2023/05/10 07:08:34;;;;;;;;;;;16.70;67.70;;;11.86;100.00;95288.72;5047090;28;19919;-46
2023/05/10 07:11:03;;;;;;;;;;;16.80;68.50;;;11.87;100.00;95290.31;5052549;28;20382;-47
2023/05/10 07:13:31;;;;;;;;;;;16.80;67.70;;;11.87;100.00;95286.84;5047600;28;19912;-47
2023/05/10 07:15:58;;;;;;;;;;;16.80;67.60;;;11.68;100.00;95292.81;5036964;28;19916;-47
2023/05/10 07:18:24;;;;;;;;;;;16.80;67.40;;;11.70;100.00;95281.91;5052786;28;19944;-48
2023/05/10 07:20:50;;;;;;;;;;;16.90;67.30;;;11.72;100.00;95293.06;5038272;28;20363;-47
2023/05/10 07:23:17;;;;;;;;;;;16.90;67.10;;;11.74;100.00;95294.38;5052661;28;19999;-49
2023/05/10 07:25:49;;;;;;;;;;;16.90;67.20;;;11.75;100.00;95303.19;5047491;28;19931;-47
2023/05/10 07:28:16;;;;;;;;;;;16.80;67.10;;;11.82;100.00;95301.81;5052602;28;19933;-47
2023/05/10 07:30:42;;;;;;;;;;;16.80;67.50;;;11.84;100.00;95298.84;5048531;28;19962;-47
2023/05/10 07:33:11;;;;;;;;;;;16.90;67.00;;;11.94;100.00;95309.50;5041557;28;19915;-49
2023/05/10 07:35:37;;;;;;;;;;;16.90;66.90;;;11.98;100.00;95310.53;5052097;28;19966;-47
2023/05/10 07:38:03;;;;;;;;;;;17.00;66.90;;;11.97;100.00;95310.78;5042314;28;20287;-48
2023/05/10 07:40:29;;;;;;;;;;;17.00;67.70;;;11.93;100.00;95304.41;5049768;28;19908;-47
2023/05/10 07:42:55;;;;;;;;;;;17.00;66.80;;;11.97;100.00;95298.25;5051312;28;19909;-48
2023/05/10 07:45:21;;;;;;;;;;;17.10;66.80;;;11.99;100.00;95309.44;5042844;28;19908;-49
2023/05/10 07:47:47;;;;;;;;;;;17.10;66.70;;;12.02;100.00;95308.88;5052360;28;20289;-49
2023/05/10 07:50:13;;;;;;;;;;;17.20;66.60;;;12.03;100.00;95307.00;5039566;28;20062;-47
2023/05/10 07:52:39;;;;;;;;;;;17.20;66.40;;;12.05;100.00;95310.19;5031832;28;19999;-47
2023/05/10 07:55:07;;;;;;;;;;;17.20;66.40;;;12.04;100.00;95311.28;5031205;28;20294;-48
2023/05/10 07:57:34;;;;;;;;;;;17.30;66.40;;;11.91;100.00;95306.56;5032484;28;20016;-47
2023/05/10 08:00:00;;;;;;;;;;;17.30;66.20;;;12.00;100.00;95312.91;5044362;28;20355;-47
2023/05/10 08:02:26;;;;;;;;;;;17.30;66.20;;;12.02;100.00;95303.53;5031384;28;19908;-49
2023/05/10 08:04:52;;;;;;;;;;;17.40;66.10;;;12.22;100.00;95307.91;5031919;28;20390;-48
2023/05/10 08:07:18;;;;;;;;;;;17.60;66.00;;;12.25;95.77;95306.53;5035363;28;19912;-46
2023/05/10 08:09:44;;;;;;;;;;;17.80;65.70;;;12.23;96.02;95314.84;5032819;28;19920;-47
2023/05/10 08:12:09;;;;;;;;;;;18.00;65.30;;;12.29;94.24;95304.91;5033556;28;19912;-48
2023/05/10 08:14:38;;;;;;;;;;;18.20;64.90;;;12.40;94.50;95308.28;5042342;28;19915;-47
2023/05/10 08:17:04;;;;;;;;;;;18.50;64.60;;;12.63;93.41;95310.19;5035463;28;19931;-50
2023/05/10 08:19:30;;;;;;;;;;;18.70;64.20;;;12.73;90.13;95311.94;5030878;28;19912;-47
2023/05/10 08:21:56;;;;;;;;;;;18.90;64.10;;;12.91;90.89;95311.22;5031661;28;19920;-48
2023/05/10 08:24:22;;;;;;;;;;;19.00;63.90;;;13.07;91.81;95311.81;5032017;28;19915;-46
2023/05/10 08:26:48;;;;;;;;;;;19.00;63.80;;;13.06;88.36;95317.44;5033074;28;19909;-47
2023/05/10 08:29:15;;;;;;;;;;;19.10;63.60;;;13.17;89.09;95318.91;5051704;28;19909;-46
2023/05/10 08:31:41;;;;;;;;;;;19.20;63.40;;;13.16;87.11;95314.63;5046691;28;19999;-45
2023/05/10 08:34:07;;;;;;;;;;;19.30;63.20;;;13.16;85.63;95320.78;5051522;28;20003;-47
2023/05/10 08:36:32;;;;;;;;;;;19.40;63.00;;;13.36;85.63;95318.97;5051485;28;19912;-49
2023/05/10 08:38:58;;;;;;;;;;;19.40;62.90;;;13.45;84.64;95317.25;5042691;28;19962;-46
2023/05/10 08:41:25;;;;;;;;;;;19.40;62.80;;;13.49;83.34;95322.81;5051807;28;19916;-46
2023/05/10 08:43:53;;;;;;;;;;;19.30;62.70;;;13.58;84.94;95323.75;5042397;28;19948;-46
2023/05/10 08:46:22;;;;;;;;;;;19.40;62.80;;;13.51;83.65;95326.00;5047180;28;20011;-46
2023/05/10 08:48:54;;;;;;;;;;;19.30;62.80;;;13.39;85.71;95329.88;5034112;28;20274;-47
2023/05/10 08:51:26;;;;;;;;;;;19.20;62.60;;;13.41;85.72;95329.59;5042439;28;19995;-47
2023/05/10 08:53:53;;;;;;;;;;;19.00;62.70;;;13.50;86.68;95335.88;5028369;28;19952;-47
2023/05/10 08:56:20;;;;;;;;;;;18.90;62.90;;;13.36;86.29;95337.69;5046462;28;19919;-47
2023/05/10 08:58:46;;;;;;;;;;;18.90;63.00;;;13.29;87.84;95340.72;5041357;28;19909;-47
2023/05/10 09:01:15;;;;;;;;;;;18.70;62.90;;;13.18;85.20;95345.34;5049289;28;20004;-46
2023/05/10 09:03:42;;;;;;;;;;;18.80;62.90;;;12.92;83.33;95347.53;5029171;28;20328;-46
2023/05/10 09:06:08;;;;;;;;;;;19.00;62.40;;;13.19;83.16;95346.97;5055133;28;20198;-47
2023/05/10 09:08:34;;;;;;;;;;;19.10;62.10;;;13.54;83.57;95349.50;5052077;28;20106;-46
2023/05/10 09:11:01;;;;;;;;;;;19.40;62.10;;;13.70;83.29;95358.91;5055104;28;19932;-47
2023/05/10 09:13:29;;;;;;;;;;;19.60;62.00;;;13.92;81.75;95342.25;5049471;28;20019;-47
2023/05/10 09:15:55;;;;;;;;;;;19.80;61.80;;;13.84;78.81;95341.00;5035656;28;19913;-48
2023/05/10 09:18:21;;;;;;;;;;;20.00;62.30;;;13.82;77.10;95339.72;5054902;28;20404;-47
2023/05/10 09:20:48;;;;;;;;;;;20.10;61.10;;;13.82;78.15;95347.75;5043099;28;19912;-46
2023/05/10 09:23:14;;;;;;;;;;;20.20;60.60;;;13.79;77.39;95343.00;5054991;28;20362;-47
2023/05/10 09:25:41;;;;;;;;;;;20.10;60.40;;;13.78;77.62;95357.44;5048664;28;19909;-47
2023/05/10 09:28:09;;;;;;;;;;;20.00;60.30;;;13.67;76.97;95350.66;5046403;28;19915;-48
2023/05/10 09:30:35;;;;;;;;;;;19.90;60.10;;;13.61;78.37;95349.94;5054632;28;19916;-47
2023/05/10 09:33:01;;;;;;;;;;;19.90;60.00;;;13.89;80.29;95345.50;5048719;28;19977;-47
2023/05/10 09:35:32;;;;;;;;;;;19.90;60.00;;;14.06;79.21;95345.78;5054178;28;19917;-48
2023/05/10 09:38:05;;;;;;;;;;;20.00;60.10;;;14.18;74.92;95344.53;5045050;28;20286;-47
2023/05/10 09:40:31;;;;;;;;;;;20.10;60.10;;;14.14;76.24;95338.97;5054607;28;20282;-46
2023/05/10 09:43:01;;;;;;;;;;;20.20;59.70;;;13.99;72.33;95341.88;5054263;28;19979;-47
2023/05/10 09:45:30;;;;;;;;;;;20.40;59.50;;;13.80;74.20;95340.00;5041438;28;19963;-47
2023/05/10 09:47:58;;;;;;;;;;;20.40;58.80;;;13.96;73.36;95347.81;5054267;28;19917;-49
2023/05/10 09:50:25;;;;;;;;;;;20.50;58.70;;;14.09;73.42;95339.03;5047573;28;19961;-47
2023/05/10 09:52:59;;;;;;;;;;;20.50;58.60;;;14.28;71.96;95342.47;5049030;28;19908;-46
2023/05/10 09:55:46;;;;;;;;;;;20.60;58.70;;;14.50;72.88;95341.03;5049704;28;20007;-47
2023/05/10 09:58:15;;;;;;;;;;;20.60;58.60;;;14.54;73.42;95339.38;5049663;28;19939;-47
2023/05/10 10:00:47;;;;;;;;;;;20.60;58.70;;;14.48;73.32;95338.66;5054067;28;19991;-49
2023/05/10 10:03:16;;;;;;;;;;;20.60;58.60;;;14.37;71.34;95347.94;5038241;28;19970;-47
2023/05/10 10:05:44;;;;;;;;;;;20.50;58.50;;;14.19;70.13;95346.91;5052952;28;19919;-46
2023/05/10 10:08:12;;;;;;;;;;;20.40;58.30;;;14.06;70.82;95353.00;5051887;28;19908;-46
2023/05/10 10:10:41;;;;;;;;;;;20.20;58.10;;;13.95;70.05;95348.91;5053773;28;20314;-47
2023/05/10 10:13:07;;;;;;;;;;;20.10;58.60;;;13.89;70.81;95348.97;5052292;28;19912;-47
2023/05/10 10:15:35;;;;;;;;;;;20.00;57.90;;;13.86;71.44;95349.56;5049324;28;19909;-47
2023/05/10 10:18:01;;;;;;;;;;;20.00;57.80;;;13.92;72.25;95354.84;5053767;28;19909;-47
2023/05/10 10:20:27;;;;;;;;;;;20.00;57.90;;;13.92;72.48;95357.53;5043066;28;19912;-46
2023/05/10 10:22:53;;;;;;;;;;;20.00;57.80;;;13.97;72.52;95349.41;5053524;28;19943;-47
2023/05/10 10:25:24;;;;;;;;;;;20.00;57.60;;;13.81;71.25;95346.94;5051718;28;19970;-47
2023/05/10 10:27:53;;;;;;;;;;;20.10;57.40;;;14.02;72.61;95347.44;5036661;28;19961;-47
2023/05/10 10:30:37;;;;;;;;;;;20.20;57.30;;;14.04;71.28;95352.50;5053399;28;19924;-48
2023/05/10 10:33:52;;;;;;;;;;;20.30;57.30;;;14.26;72.29;95354.59;5047845;28;19908;-47
2023/05/10 10:36:20;;;;;;;;;;;20.40;57.20;;;14.34;70.94;95351.22;5038120;28;19924;-48
2023/05/10 10:38:48;;;;;;;;;;;20.50;57.20;;;14.47;69.44;95344.31;5026159;28;19947;-47
2023/05/10 10:41:29;;;;;;;;;;;20.60;57.10;;;14.40;67.08;95346.56;5048036;28;19909;-47
2023/05/10 10:44:24;;;;;;;;;;;20.80;56.80;;;14.25;64.74;95342.25;5043915;28;19908;-47
2023/05/10 10:47:11;;;;;;;;;;;21.00;56.30;;;14.42;66.44;95342.53;5035292;28;19908;-50
2023/05/10 10:49:48;;;;;;;;;;;21.10;55.70;;;14.60;64.84;95340.88;5048770;28;20318;-46
2023/05/10 10:52:32;;;;;;;;;;;21.30;55.50;;;14.77;64.52;95333.06;5027864;28;19915;-48
2023/05/10 10:55:03;;;;;;;;;;;21.50;55.20;;;14.87;63.30;95334.75;5052949;28;19931;-48
2023/05/10 10:58:00;;;;;;;;;;;21.70;54.80;;;14.94;63.65;95345.09;5034400;28;20363;-47
2023/05/10 11:00:35;;;;;;;;;;;21.90;54.10;;;15.18;61.79;95344.91;5052946;28;19943;-47
2023/05/10 11:03:14;;;;;;;;;;;22.20;53.90;;;15.43;61.71;95344.38;5040605;28;20021;-47
2023/05/10 11:05:58;;;;;;;;;;;22.50;53.70;;;15.79;61.52;95343.63;5052738;28;19908;-48
2023/05/10 11:08:32;;;;;;;;;;;22.80;53.50;;;16.04;61.58;95338.75;5033150;28;19908;-48
2023/05/10 11:11:03;;;;;;;;;;;23.20;53.10;;;16.22;57.02;95332.41;5052672;28;20370;-48
2023/05/10 11:13:32;;;;;;;;;;;23.60;52.70;;;16.36;58.27;95343.91;5047505;28;19916;-48
2023/05/10 11:16:10;;;;;;;;;;;23.90;52.00;;;16.55;57.19;95334.84;5052024;28;19916;-48
2023/05/10 11:18:37;;;;;;;;;;;24.10;51.80;;;16.73;59.87;95333.81;5052595;28;20370;-47
2023/05/10 11:21:04;;;;;;;;;;;24.30;51.30;;;16.89;57.15;95336.91;5035296;28;20355;-47